This is the latest recevied weather packets stored in our database for station/object F4LNO-10. If no packets are shown the sender has not sent any weather packets the latest 10 day(s).
| Time | Temp. | Humidity | Pressure | Rain* | Wind** | Luminosity | Snow |
|---|---|---|---|---|---|---|---|
| 1777463461 | 22.22° C | 58% | 1015.8 hPa | - | - | - | - |
| 1777462561 | 22.22° C | 58% | 1015.9 hPa | - | - | - | - |
| 1777461660 | 22.22° C | 59% | 1015.8 hPa | - | - | - | - |
| 1777460759 | 22.22° C | 59% | 1016 hPa | - | - | - | - |
| 1777459858 | 20° C | 65% | 1015.9 hPa | - | - | - | - |
| 1777458957 | 19.44° C | 66% | 1015.9 hPa | - | - | - | - |
| 1777458056 | 19.44° C | 65% | 1015.9 hPa | - | - | - | - |
| 1777457156 | 19.44° C | 65% | 1015.8 hPa | - | - | - | - |
| 1777456255 | 19.44° C | 65% | 1015.7 hPa | - | - | - | - |
| 1777455354 | 21.67° C | 58% | 1015.7 hPa | - | - | - | - |
| 1777454453 | 20° C | 63% | 1015.6 hPa | - | - | - | - |
| 1777453552 | 19.44° C | 64% | 1015.7 hPa | - | - | - | - |
| 1777452651 | 19.44° C | 64% | 1015.5 hPa | - | - | - | - |
| 1777451751 | 22.22° C | 58% | 1015.4 hPa | - | - | - | - |
| 1777450850 | 19.44° C | 64% | 1015.4 hPa | - | - | - | - |
| 1777449949 | 22.22° C | 58% | 1015.3 hPa | - | - | - | - |
| 1777449047 | 21.11° C | 59% | 1015.3 hPa | - | - | - | - |
| 1777448167 | 21.67° C | 57% | 1015.2 hPa | - | - | - | - |
| 1777447266 | 21.11° C | 58% | 1015.4 hPa | - | - | - | - |
| 1777446365 | 21.11° C | 63% | 1015.4 hPa | - | - | - | - |
| 1777445465 | 19.44° C | 64% | 1015.4 hPa | - | - | - | - |
| 1777444564 | 21.11° C | 62% | 1015.3 hPa | - | - | - | - |
| 1777443663 | 20° C | 63% | 1015.3 hPa | - | - | - | - |
| 1777442762 | 18.89° C | 63% | 1015.3 hPa | - | - | - | - |
| 1777441861 | 20.56° C | 60% | 1015.1 hPa | - | - | - | - |
* Rain since midnight (hover to see other rain measurements)
** Current wind speed in m/s (hover to see current wind gust speed)